Albany, OR

3:40 AM PDT on October 31, 2014 (GMT -0700)
Corvallis Municipal | Change Station
CLOSE
Current Station
Airport
Location: Corvallis,
Elevation: 246 ft
Nearby Weather Stations

Elev 246 ft 44.50 °N, 123.29 °W | Updated 5 minutes ago

Rain
Rain
57 °F
Feels Like 57 °F
N
9
Wind Variable Wind from NW

Today
High -- | Low -- °F
--% Chance of Precip.
Yesterday
High -- | Low -- °F
Precip. -- in
7:48 AM 6:02 PM
First Quarter, 54% visible
Pressure 29.71 in
Visibility 10.0 miles
Clouds Few 800 ft
Mostly Cloudy 1900 ft
Overcast 3000 ft
Dew Point 54 °F
Humidity 88%
Rainfall 0.66 in
Snow Depth Not available.
UV 0 out of 12
Pollen .30 out of 12
Air Quality Not available.
Flu Activity Not available.
METAR KCVO 311035Z AUTO 31008KT 10SM FEW008 BKN019 OVC030 14/12 A2971 RMK AO1 P0028

More Conditions Fewer Conditions

Pressure 29.71 in
Visibility 10.0 miles
Clouds Few 800 ft
Mostly Cloudy 1900 ft
Overcast 3000 ft
Dew Point 54 °F
Humidity 88%
Rainfall 0.66 in
Snow Depth Not available.
UV 0 out of 12
Pollen .30 out of 12
Air Quality Not available.
Flu Activity Not available.
METAR KCVO 311035Z AUTO 31008KT 10SM FEW008 BKN019 OVC030 14/12 A2971 RMK AO1 P0028

More Conditions Fewer Conditions

10-Day Weather Forecast

Almanac

Astronomy

Oct. 31, 2014 Rise Set
Actual Time
Civil Twilight
Nautical Twilight
Astronomical Twilight
Moon
Length of Visible Light
Length of Day
Tomorrow will be .
, % of the Moon is Illuminated

Today's Extremes

State Highs State Lows

Community

WunderPhotos

Upload Photos

1,766,580 photos uploaded!

WunderBlogs® & News

Nearby

Air Quality

  Air Quality AQ Index Pollutant
Not available.

Snow Depth

Station Depth Elevation

Earthquake Activity

City Distance Mag. Time & Date
Minimum magnitude displayed is 2.5.

Coastal Water Temperatures

Place Temperature

Nearby Weather Stations